sensor_id;sensor_type;location;lat;lon;timestamp;pressure;altitude;pressure_sealevel;temperature;humidity
43820;BME280;67762;52.476;6.046;2023-04-26T00:02:10;101886.69;;;2.06;82.16
43820;BME280;67762;52.476;6.046;2023-04-26T00:04:39;101880.53;;;2.07;81.87
43820;BME280;67762;52.476;6.046;2023-04-26T00:07:04;101876.75;;;2.11;82.05
43820;BME280;67762;52.476;6.046;2023-04-26T00:09:30;101883.84;;;2.11;82.20
43820;BME280;67762;52.476;6.046;2023-04-26T00:11:56;101879.22;;;2.14;82.78
43820;BME280;67762;52.476;6.046;2023-04-26T00:14:22;101890.44;;;2.18;82.57
43820;BME280;67762;52.476;6.046;2023-04-26T00:16:47;101900.81;;;2.21;82.14
43820;BME280;67762;52.476;6.046;2023-04-26T00:19:13;101903.78;;;2.30;82.76
43820;BME280;67762;52.476;6.046;2023-04-26T00:21:40;101898.00;;;2.40;82.96
43820;BME280;67762;52.476;6.046;2023-04-26T00:24:06;101898.34;;;2.49;82.51
43820;BME280;67762;52.476;6.046;2023-04-26T00:26:32;101895.69;;;2.65;82.96
43820;BME280;67762;52.476;6.046;2023-04-26T00:28:58;101891.22;;;2.81;82.91
43820;BME280;67762;52.476;6.046;2023-04-26T00:31:24;101890.16;;;2.99;83.58
43820;BME280;67762;52.476;6.046;2023-04-26T00:33:50;101881.81;;;3.07;83.56
43820;BME280;67762;52.476;6.046;2023-04-26T00:36:15;101879.66;;;3.13;82.84
43820;BME280;67762;52.476;6.046;2023-04-26T00:38:47;101880.31;;;3.17;83.64
43820;BME280;67762;52.476;6.046;2023-04-26T00:41:13;101884.59;;;3.19;83.54
43820;BME280;67762;52.476;6.046;2023-04-26T00:43:39;101874.84;;;3.20;83.10
43820;BME280;67762;52.476;6.046;2023-04-26T00:46:06;101877.50;;;3.20;83.73
43820;BME280;67762;52.476;6.046;2023-04-26T00:48:33;101870.63;;;3.17;83.51
43820;BME280;67762;52.476;6.046;2023-04-26T00:50:59;101871.66;;;3.15;83.77
43820;BME280;67762;52.476;6.046;2023-04-26T00:53:26;101870.03;;;3.12;83.24
43820;BME280;67762;52.476;6.046;2023-04-26T00:55:51;101870.72;;;3.16;83.70
43820;BME280;67762;52.476;6.046;2023-04-26T00:58:18;101866.88;;;3.21;83.62
43820;BME280;67762;52.476;6.046;2023-04-26T01:00:44;101867.31;;;3.28;83.70
43820;BME280;67762;52.476;6.046;2023-04-26T01:03:10;101869.53;;;3.35;83.62
43820;BME280;67762;52.476;6.046;2023-04-26T01:05:39;101870.56;;;3.47;83.06
43820;BME280;67762;52.476;6.046;2023-04-26T01:08:05;101865.09;;;3.50;83.43
43820;BME280;67762;52.476;6.046;2023-04-26T01:10:31;101867.72;;;3.50;83.32
43820;BME280;67762;52.476;6.046;2023-04-26T01:12:59;101871.22;;;3.50;83.34
43820;BME280;67762;52.476;6.046;2023-04-26T01:15:25;101871.13;;;3.52;83.70
43820;BME280;67762;52.476;6.046;2023-04-26T01:17:52;101864.91;;;3.53;82.86
43820;BME280;67762;52.476;6.046;2023-04-26T01:20:19;101870.38;;;3.50;83.82
43820;BME280;67762;52.476;6.046;2023-04-26T01:22:45;101880.16;;;3.48;83.75
43820;BME280;67762;52.476;6.046;2023-04-26T01:25:11;101878.56;;;3.45;83.63
43820;BME280;67762;52.476;6.046;2023-04-26T01:27:37;101870.09;;;3.40;83.78
43820;BME280;67762;52.476;6.046;2023-04-26T01:30:03;101872.25;;;3.34;83.16
43820;BME280;67762;52.476;6.046;2023-04-26T01:32:30;101876.28;;;3.25;83.85
43820;BME280;67762;52.476;6.046;2023-04-26T01:34:56;101878.69;;;3.14;83.24
43820;BME280;67762;52.476;6.046;2023-04-26T01:37:22;101876.88;;;3.01;83.67
43820;BME280;67762;52.476;6.046;2023-04-26T01:39:48;101876.03;;;2.86;83.83
43820;BME280;67762;52.476;6.046;2023-04-26T01:42:13;101868.63;;;2.77;83.89
43820;BME280;67762;52.476;6.046;2023-04-26T01:44:38;101877.91;;;2.68;83.11
43820;BME280;67762;52.476;6.046;2023-04-26T01:47:04;101865.03;;;2.64;83.18
43820;BME280;67762;52.476;6.046;2023-04-26T01:49:30;101870.53;;;2.59;83.76
43820;BME280;67762;52.476;6.046;2023-04-26T01:51:57;101870.81;;;2.55;83.26
43820;BME280;67762;52.476;6.046;2023-04-26T01:54:23;101867.50;;;2.51;83.14
43820;BME280;67762;52.476;6.046;2023-04-26T01:56:49;101864.09;;;2.49;83.97
43820;BME280;67762;52.476;6.046;2023-04-26T01:59:14;101868.59;;;2.47;83.95
43820;BME280;67762;52.476;6.046;2023-04-26T02:01:40;101869.63;;;2.45;83.89
43820;BME280;67762;52.476;6.046;2023-04-26T02:04:09;101876.19;;;2.38;83.80
43820;BME280;67762;52.476;6.046;2023-04-26T02:06:35;101875.75;;;2.29;84.21
43820;BME280;67762;52.476;6.046;2023-04-26T02:09:03;101866.41;;;2.24;83.75
43820;BME280;67762;52.476;6.046;2023-04-26T02:11:29;101870.06;;;2.21;84.11
43820;BME280;67762;52.476;6.046;2023-04-26T02:13:54;101862.41;;;2.17;84.36
43820;BME280;67762;52.476;6.046;2023-04-26T02:16:20;101869.66;;;2.13;84.26
43820;BME280;67762;52.476;6.046;2023-04-26T02:18:46;101870.06;;;2.06;84.08
43820;BME280;67762;52.476;6.046;2023-04-26T02:21:12;101863.34;;;2.00;84.19
43820;BME280;67762;52.476;6.046;2023-04-26T02:23:38;101868.13;;;1.94;84.65
43820;BME280;67762;52.476;6.046;2023-04-26T02:26:03;101871.06;;;1.88;84.26
43820;BME280;67762;52.476;6.046;2023-04-26T02:28:29;101867.84;;;1.83;84.45
43820;BME280;67762;52.476;6.046;2023-04-26T02:30:55;101868.94;;;1.78;84.26
43820;BME280;67762;52.476;6.046;2023-04-26T02:33:22;101869.94;;;1.76;84.51
43820;BME280;67762;52.476;6.046;2023-04-26T02:35:48;101866.41;;;1.77;84.69
43820;BME280;67762;52.476;6.046;2023-04-26T02:38:14;101871.56;;;1.78;84.49
43820;BME280;67762;52.476;6.046;2023-04-26T02:40:40;101866.31;;;1.78;84.77
43820;BME280;67762;52.476;6.046;2023-04-26T02:43:06;101867.91;;;1.81;84.70
43820;BME280;67762;52.476;6.046;2023-04-26T02:45:31;101859.84;;;1.84;85.16
43820;BME280;67762;52.476;6.046;2023-04-26T02:47:57;101857.06;;;1.87;84.89
43820;BME280;67762;52.476;6.046;2023-04-26T02:50:23;101862.91;;;1.92;85.38
43820;BME280;67762;52.476;6.046;2023-04-26T02:52:49;101856.72;;;1.93;85.04
43820;BME280;67762;52.476;6.046;2023-04-26T02:55:15;101852.22;;;1.95;84.99
43820;BME280;67762;52.476;6.046;2023-04-26T02:57:41;101852.97;;;1.97;85.34
43820;BME280;67762;52.476;6.046;2023-04-26T03:00:07;101854.69;;;1.98;85.38
43820;BME280;67762;52.476;6.046;2023-04-26T03:02:34;101863.50;;;1.97;85.04
43820;BME280;67762;52.476;6.046;2023-04-26T03:05:00;101860.88;;;1.97;85.61
43820;BME280;67762;52.476;6.046;2023-04-26T03:07:27;101868.78;;;1.97;84.93
43820;BME280;67762;52.476;6.046;2023-04-26T03:09:52;101868.03;;;1.95;85.44
43820;BME280;67762;52.476;6.046;2023-04-26T03:12:18;101863.94;;;1.90;84.93
43820;BME280;67762;52.476;6.046;2023-04-26T03:14:43;101864.25;;;1.84;85.19
43820;BME280;67762;52.476;6.046;2023-04-26T03:17:09;101863.78;;;1.77;85.38
43820;BME280;67762;52.476;6.046;2023-04-26T03:19:35;101861.31;;;1.74;85.14
43820;BME280;67762;52.476;6.046;2023-04-26T03:22:02;101863.34;;;1.69;85.34
43820;BME280;67762;52.476;6.046;2023-04-26T03:24:28;101859.31;;;1.62;85.21
43820;BME280;67762;52.476;6.046;2023-04-26T03:26:54;101865.84;;;1.55;85.22
43820;BME280;67762;52.476;6.046;2023-04-26T03:29:19;101861.16;;;1.44;85.30
43820;BME280;67762;52.476;6.046;2023-04-26T03:31:45;101859.75;;;1.37;85.53
43820;BME280;67762;52.476;6.046;2023-04-26T03:34:11;101856.28;;;1.37;85.22
43820;BME280;67762;52.476;6.046;2023-04-26T03:36:36;101852.78;;;1.36;85.43
43820;BME280;67762;52.476;6.046;2023-04-26T03:39:04;101853.00;;;1.33;85.25
43820;BME280;67762;52.476;6.046;2023-04-26T03:41:33;101848.81;;;1.29;85.47
43820;BME280;67762;52.476;6.046;2023-04-26T03:44:02;101852.50;;;1.25;85.52
43820;BME280;67762;52.476;6.046;2023-04-26T03:46:28;101845.72;;;1.21;85.59
43820;BME280;67762;52.476;6.046;2023-04-26T03:48:54;101845.72;;;1.21;85.27
43820;BME280;67762;52.476;6.046;2023-04-26T03:51:19;101845.63;;;1.23;85.72
43820;BME280;67762;52.476;6.046;2023-04-26T03:53:46;101841.94;;;1.27;85.41
43820;BME280;67762;52.476;6.046;2023-04-26T03:56:13;101842.69;;;1.29;85.59
43820;BME280;67762;52.476;6.046;2023-04-26T03:58:38;101842.69;;;1.29;85.74
43820;BME280;67762;52.476;6.046;2023-04-26T04:01:04;101842.53;;;1.32;86.01
43820;BME280;67762;52.476;6.046;2023-04-26T04:03:30;101839.91;;;1.32;85.83
43820;BME280;67762;52.476;6.046;2023-04-26T04:05:55;101837.28;;;1.32;86.00
43820;BME280;67762;52.476;6.046;2023-04-26T04:08:21;101841.47;;;1.36;86.08
43820;BME280;67762;52.476;6.046;2023-04-26T04:10:47;101843.06;;;1.38;85.97
43820;BME280;67762;52.476;6.046;2023-04-26T04:13:12;101848.00;;;1.44;86.12
43820;BME280;67762;52.476;6.046;2023-04-26T04:15:38;101849.38;;;1.51;86.26
43820;BME280;67762;52.476;6.046;2023-04-26T04:18:04;101849.13;;;1.56;86.05
43820;BME280;67762;52.476;6.046;2023-04-26T04:20:29;101852.97;;;1.66;86.23
43820;BME280;67762;52.476;6.046;2023-04-26T04:22:56;101856.91;;;1.74;85.97
43820;BME280;67762;52.476;6.046;2023-04-26T04:25:26;101861.56;;;1.85;85.83
43820;BME280;67762;52.476;6.046;2023-04-26T04:27:52;101859.25;;;1.95;86.36
43820;BME280;67762;52.476;6.046;2023-04-26T04:30:18;101858.78;;;2.04;85.98
43820;BME280;67762;52.476;6.046;2023-04-26T04:32:44;101864.47;;;2.12;86.41
43820;BME280;67762;52.476;6.046;2023-04-26T04:35:12;101861.31;;;2.21;86.06
43820;BME280;67762;52.476;6.046;2023-04-26T04:37:39;101868.78;;;2.28;86.35
43820;BME280;67762;52.476;6.046;2023-04-26T04:40:06;101866.66;;;2.35;86.40
43820;BME280;67762;52.476;6.046;2023-04-26T04:42:34;101866.31;;;2.41;85.90
43820;BME280;67762;52.476;6.046;2023-04-26T04:45:02;101871.16;;;2.49;86.42
43820;BME280;67762;52.476;6.046;2023-04-26T04:47:30;101868.06;;;2.56;86.52
43820;BME280;67762;52.476;6.046;2023-04-26T04:49:56;101872.16;;;2.62;86.43
43820;BME280;67762;52.476;6.046;2023-04-26T04:52:21;101869.09;;;2.69;85.77
43820;BME280;67762;52.476;6.046;2023-04-26T04:54:47;101871.44;;;2.74;86.34
43820;BME280;67762;52.476;6.046;2023-04-26T04:57:14;101874.47;;;2.82;86.02
43820;BME280;67762;52.476;6.046;2023-04-26T04:59:41;101871.22;;;2.92;86.00
43820;BME280;67762;52.476;6.046;2023-04-26T05:02:06;101876.81;;;3.02;85.87
43820;BME280;67762;52.476;6.046;2023-04-26T05:04:32;101869.19;;;3.12;86.44
43820;BME280;67762;52.476;6.046;2023-04-26T05:06:59;101867.97;;;3.17;86.40
43820;BME280;67762;52.476;6.046;2023-04-26T05:09:25;101871.97;;;3.24;86.16
43820;BME280;67762;52.476;6.046;2023-04-26T05:11:51;101876.88;;;3.30;86.20
43820;BME280;67762;52.476;6.046;2023-04-26T05:14:17;101871.59;;;3.30;85.98
43820;BME280;67762;52.476;6.046;2023-04-26T05:16:43;101876.88;;;3.30;85.71
43820;BME280;67762;52.476;6.046;2023-04-26T05:19:08;101872.53;;;3.29;86.27
43820;BME280;67762;52.476;6.046;2023-04-26T05:21:34;101884.69;;;3.32;85.86
43820;BME280;67762;52.476;6.046;2023-04-26T05:24:00;101878.06;;;3.39;85.54
43820;BME280;67762;52.476;6.046;2023-04-26T05:26:26;101880.91;;;3.50;85.53
43820;BME280;67762;52.476;6.046;2023-04-26T05:29:10;101883.38;;;3.95;85.79
43820;BME280;67762;52.476;6.046;2023-04-26T05:31:45;101884.34;;;4.35;86.03
43820;BME280;67762;52.476;6.046;2023-04-26T05:34:31;101895.50;;;4.53;85.84
43820;BME280;67762;52.476;6.046;2023-04-26T05:36:57;101884.91;;;4.53;85.56
43820;BME280;67762;52.476;6.046;2023-04-26T05:39:23;101892.78;;;4.54;85.22
43820;BME280;67762;52.476;6.046;2023-04-26T05:41:49;101891.72;;;4.57;85.20
43820;BME280;67762;52.476;6.046;2023-04-26T05:44:15;101891.72;;;4.57;84.73
43820;BME280;67762;52.476;6.046;2023-04-26T05:46:41;101889.94;;;4.57;84.68
43820;BME280;67762;52.476;6.046;2023-04-26T05:49:08;101891.00;;;4.67;84.58
43820;BME280;67762;52.476;6.046;2023-04-26T05:51:34;101895.00;;;4.87;84.71
43820;BME280;67762;52.476;6.046;2023-04-26T05:54:00;101896.97;;;5.23;84.78
43820;BME280;67762;52.476;6.046;2023-04-26T05:56:26;101907.06;;;5.68;84.69
43820;BME280;67762;52.476;6.046;2023-04-26T05:58:52;101901.00;;;6.04;84.75
43820;BME280;67762;52.476;6.046;2023-04-26T06:01:18;101900.78;;;6.07;84.41
43820;BME280;67762;52.476;6.046;2023-04-26T06:03:45;101897.09;;;5.97;83.26
43820;BME280;67762;52.476;6.046;2023-04-26T06:06:12;101896.66;;;5.78;83.34
43820;BME280;67762;52.476;6.046;2023-04-26T06:08:41;101898.81;;;5.60;82.32
43820;BME280;67762;52.476;6.046;2023-04-26T06:11:07;101896.34;;;5.45;82.54
43820;BME280;67762;52.476;6.046;2023-04-26T06:13:33;101896.78;;;5.39;82.42
43820;BME280;67762;52.476;6.046;2023-04-26T06:15:58;101896.22;;;5.33;82.18
43820;BME280;67762;52.476;6.046;2023-04-26T06:18:24;101904.28;;;5.32;81.89
43820;BME280;67762;52.476;6.046;2023-04-26T06:20:50;101907.47;;;5.37;81.83
43820;BME280;67762;52.476;6.046;2023-04-26T06:23:16;101908.75;;;5.44;82.01
43820;BME280;67762;52.476;6.046;2023-04-26T06:25:41;101903.88;;;5.51;81.96
43820;BME280;67762;52.476;6.046;2023-04-26T06:28:11;101912.25;;;5.57;81.46
43820;BME280;67762;52.476;6.046;2023-04-26T06:30:36;101906.22;;;5.55;80.99
43820;BME280;67762;52.476;6.046;2023-04-26T06:33:02;101919.00;;;5.61;81.14
43820;BME280;67762;52.476;6.046;2023-04-26T06:35:30;101921.66;;;5.61;80.99
43820;BME280;67762;52.476;6.046;2023-04-26T06:37:56;101929.50;;;5.63;81.02
43820;BME280;67762;52.476;6.046;2023-04-26T06:40:21;101932.69;;;5.55;80.48
43820;BME280;67762;52.476;6.046;2023-04-26T06:42:47;101930.66;;;5.46;80.79
43820;BME280;67762;52.476;6.046;2023-04-26T06:45:23;101935.97;;;5.59;80.64
43820;BME280;67762;52.476;6.046;2023-04-26T06:47:52;101939.66;;;5.56;80.34
43820;BME280;67762;52.476;6.046;2023-04-26T06:50:22;101949.53;;;5.54;80.67
43820;BME280;67762;52.476;6.046;2023-04-26T06:52:47;101938.94;;;5.54;80.29
43820;BME280;67762;52.476;6.046;2023-04-26T06:55:13;101941.38;;;5.57;80.11
43820;BME280;67762;52.476;6.046;2023-04-26T06:57:38;101944.78;;;5.72;80.66
43820;BME280;67762;52.476;6.046;2023-04-26T07:00:04;101942.03;;;5.99;80.46
43820;BME280;67762;52.476;6.046;2023-04-26T07:02:31;101938.56;;;6.71;81.45
43820;BME280;67762;52.476;6.046;2023-04-26T07:04:57;101938.28;;;7.56;81.95
43820;BME280;67762;52.476;6.046;2023-04-26T07:07:22;101945.00;;;8.28;82.01
43820;BME280;67762;52.476;6.046;2023-04-26T07:09:48;101945.53;;;8.65;80.32
43820;BME280;67762;52.476;6.046;2023-04-26T07:12:14;101943.44;;;9.11;79.78
43820;BME280;67762;52.476;6.046;2023-04-26T07:14:39;101944.91;;;9.15;78.74
43820;BME280;67762;52.476;6.046;2023-04-26T07:17:08;101935.56;;;9.21;77.83
43820;BME280;67762;52.476;6.046;2023-04-26T07:19:34;101944.19;;;9.34;77.06
43820;BME280;67762;52.476;6.046;2023-04-26T07:21:59;101938.16;;;9.32;75.88
43820;BME280;67762;52.476;6.046;2023-04-26T07:24:25;101938.06;;;9.22;74.99
43820;BME280;67762;52.476;6.046;2023-04-26T07:26:51;101938.59;;;9.37;74.37
43820;BME280;67762;52.476;6.046;2023-04-26T07:29:17;101944.06;;;9.35;73.59
43820;BME280;67762;52.476;6.046;2023-04-26T07:31:44;101935.34;;;9.33;72.45
43820;BME280;67762;52.476;6.046;2023-04-26T07:34:09;101938.53;;;9.27;72.35
43820;BME280;67762;52.476;6.046;2023-04-26T07:36:35;101936.50;;;9.20;72.18
43820;BME280;67762;52.476;6.046;2023-04-26T07:39:00;101941.97;;;9.18;71.60
43820;BME280;67762;52.476;6.046;2023-04-26T07:41:26;101935.47;;;9.11;71.42
43820;BME280;67762;52.476;6.046;2023-04-26T07:43:52;101929.91;;;8.82;70.03
43820;BME280;67762;52.476;6.046;2023-04-26T07:46:17;101934.41;;;8.71;70.18
43820;BME280;67762;52.476;6.046;2023-04-26T07:48:43;101930.41;;;8.76;70.77
43820;BME280;67762;52.476;6.046;2023-04-26T07:51:10;101936.78;;;8.85;69.84
43820;BME280;67762;52.476;6.046;2023-04-26T07:53:36;101934.88;;;9.08;70.31
43820;BME280;67762;52.476;6.046;2023-04-26T07:56:06;101940.06;;;9.41;70.06
43820;BME280;67762;52.476;6.046;2023-04-26T07:58:35;101928.47;;;9.52;70.13
43820;BME280;67762;52.476;6.046;2023-04-26T08:01:02;101948.09;;;9.51;69.71
43820;BME280;67762;52.476;6.046;2023-04-26T08:03:30;101942.66;;;9.52;69.46
43820;BME280;67762;52.476;6.046;2023-04-26T08:05:56;101939.41;;;9.49;69.46
43820;BME280;67762;52.476;6.046;2023-04-26T08:08:26;101941.66;;;9.32;68.61
43820;BME280;67762;52.476;6.046;2023-04-26T08:10:52;101954.06;;;9.22;68.76
43820;BME280;67762;52.476;6.046;2023-04-26T08:13:18;101951.81;;;9.07;68.00
43820;BME280;67762;52.476;6.046;2023-04-26T08:15:44;101943.75;;;8.65;67.05
43820;BME280;67762;52.476;6.046;2023-04-26T08:18:09;101946.44;;;8.21;66.58
43820;BME280;67762;52.476;6.046;2023-04-26T08:20:35;101941.94;;;7.77;66.55
43820;BME280;67762;52.476;6.046;2023-04-26T08:23:01;101948.09;;;7.78;67.07
43820;BME280;67762;52.476;6.046;2023-04-26T08:25:27;101946.41;;;7.88;67.91
43820;BME280;67762;52.476;6.046;2023-04-26T08:27:52;101951.50;;;7.91;68.20
43820;BME280;67762;52.476;6.046;2023-04-26T08:30:18;101949.09;;;8.10;68.52
43820;BME280;67762;52.476;6.046;2023-04-26T08:32:44;101942.44;;;8.15;68.42
43820;BME280;67762;52.476;6.046;2023-04-26T08:35:10;101947.03;;;7.91;68.05
43820;BME280;67762;52.476;6.046;2023-04-26T08:37:36;101951.59;;;7.78;67.33
43820;BME280;67762;52.476;6.046;2023-04-26T08:40:06;101958.84;;;7.76;67.97
43820;BME280;67762;52.476;6.046;2023-04-26T08:42:39;101957.53;;;7.93;68.57
43820;BME280;67762;52.476;6.046;2023-04-26T08:45:07;101953.78;;;8.06;67.64
43820;BME280;67762;52.476;6.046;2023-04-26T08:50:23;101953.56;;;8.32;68.16
43820;BME280;67762;52.476;6.046;2023-04-26T08:52:50;101954.28;;;8.34;67.54
43820;BME280;67762;52.476;6.046;2023-04-26T08:55:17;101950.66;;;8.23;67.96
43820;BME280;67762;52.476;6.046;2023-04-26T08:57:47;101949.94;;;8.21;67.44
43820;BME280;67762;52.476;6.046;2023-04-26T09:00:14;101958.19;;;8.30;67.83
43820;BME280;67762;52.476;6.046;2023-04-26T09:02:45;101960.09;;;8.39;67.41
43820;BME280;67762;52.476;6.046;2023-04-26T09:05:11;101953.81;;;8.40;67.61
43820;BME280;67762;52.476;6.046;2023-04-26T09:07:42;101957.56;;;8.37;67.74
43820;BME280;67762;52.476;6.046;2023-04-26T09:10:09;101951.78;;;8.32;67.13
43820;BME280;67762;52.476;6.046;2023-04-26T09:12:35;101951.63;;;8.34;67.61
43820;BME280;67762;52.476;6.046;2023-04-26T09:15:01;101943.88;;;8.42;67.57
43820;BME280;67762;52.476;6.046;2023-04-26T09:17:32;101944.75;;;8.42;66.46
43820;BME280;67762;52.476;6.046;2023-04-26T09:19:59;101950.78;;;8.44;66.18
43820;BME280;67762;52.476;6.046;2023-04-26T09:22:35;101939.41;;;8.53;66.28
43820;BME280;67762;52.476;6.046;2023-04-26T09:25:03;101957.66;;;8.69;65.94
43820;BME280;67762;52.476;6.046;2023-04-26T09:27:37;101938.84;;;8.81;65.90
43820;BME280;67762;52.476;6.046;2023-04-26T09:37:56;101946.56;;;10.98;65.73
43820;BME280;67762;52.476;6.046;2023-04-26T09:40:25;101943.91;;;11.17;64.55
43820;BME280;67762;52.476;6.046;2023-04-26T09:43:04;101942.78;;;11.10;63.40
43820;BME280;67762;52.476;6.046;2023-04-26T09:45:32;101941.38;;;10.87;61.42
43820;BME280;67762;52.476;6.046;2023-04-26T09:48:21;101943.91;;;10.88;61.38
43820;BME280;67762;52.476;6.046;2023-04-26T09:50:49;101932.66;;;10.94;61.74
43820;BME280;67762;52.476;6.046;2023-04-26T09:53:45;101938.00;;;10.94;61.48
43820;BME280;67762;52.476;6.046;2023-04-26T09:56:16;101930.81;;;10.66;60.65
43820;BME280;67762;52.476;6.046;2023-04-26T10:01:11;101931.16;;;10.33;60.25
43820;BME280;67762;52.476;6.046;2023-04-26T10:03:38;101936.94;;;10.08;58.70
43820;BME280;67762;52.476;6.046;2023-04-26T10:06:05;101936.00;;;9.88;58.42
43820;BME280;67762;52.476;6.046;2023-04-26T10:08:31;101926.53;;;9.74;57.95
43820;BME280;67762;52.476;6.046;2023-04-26T10:10:57;101933.22;;;9.69;58.04
43820;BME280;67762;52.476;6.046;2023-04-26T10:13:24;101934.50;;;9.74;58.52
43820;BME280;67762;52.476;6.046;2023-04-26T10:15:51;101936.00;;;9.67;58.90
43820;BME280;67762;52.476;6.046;2023-04-26T10:18:16;101935.16;;;9.67;59.29
43820;BME280;67762;52.476;6.046;2023-04-26T10:20:45;101932.81;;;9.53;59.03
43820;BME280;67762;52.476;6.046;2023-04-26T10:23:18;101931.72;;;9.55;59.46
43820;BME280;67762;52.476;6.046;2023-04-26T10:25:45;101932.44;;;9.57;59.17
43820;BME280;67762;52.476;6.046;2023-04-26T10:28:11;101931.59;;;9.57;58.64
43820;BME280;67762;52.476;6.046;2023-04-26T10:30:56;101925.84;;;9.61;58.65
43820;BME280;67762;52.476;6.046;2023-04-26T10:33:23;101929.44;;;9.71;58.62
43820;BME280;67762;52.476;6.046;2023-04-26T10:38:25;101926.13;;;9.79;57.99
43820;BME280;67762;52.476;6.046;2023-04-26T10:40:51;101932.22;;;9.90;57.59
43820;BME280;67762;52.476;6.046;2023-04-26T10:45:48;101931.38;;;9.99;56.50
43820;BME280;67762;52.476;6.046;2023-04-26T10:59:10;101919.13;;;10.67;55.01
43820;BME280;67762;52.476;6.046;2023-04-26T11:01:37;101913.94;;;10.66;54.79
43820;BME280;67762;52.476;6.046;2023-04-26T11:04:06;101916.63;;;10.75;54.72
43820;BME280;67762;52.476;6.046;2023-04-26T11:12:09;101917.75;;;10.63;52.31
43820;BME280;67762;52.476;6.046;2023-04-26T11:14:35;101918.72;;;10.62;51.91
43820;BME280;67762;52.476;6.046;2023-04-26T11:17:02;101920.25;;;10.65;52.37
43820;BME280;67762;52.476;6.046;2023-04-26T11:19:29;101919.13;;;10.67;51.50
43820;BME280;67762;52.476;6.046;2023-04-26T11:21:54;101917.47;;;10.66;52.42
43820;BME280;67762;52.476;6.046;2023-04-26T11:24:24;101912.69;;;10.70;51.60
43820;BME280;67762;52.476;6.046;2023-04-26T11:26:50;101926.03;;;10.60;51.72
43820;BME280;67762;52.476;6.046;2023-04-26T11:29:18;101923.38;;;10.79;51.46
43820;BME280;67762;52.476;6.046;2023-04-26T11:31:50;101928.44;;;10.92;51.12
43820;BME280;67762;52.476;6.046;2023-04-26T11:34:15;101928.41;;;10.73;50.05
43820;BME280;67762;52.476;6.046;2023-04-26T11:36:43;101922.81;;;10.66;49.89
43820;BME280;67762;52.476;6.046;2023-04-26T11:39:09;101915.50;;;10.68;49.50
43820;BME280;67762;52.476;6.046;2023-04-26T11:41:35;101916.19;;;10.61;49.97
43820;BME280;67762;52.476;6.046;2023-04-26T11:44:01;101915.66;;;10.76;49.56
43820;BME280;67762;52.476;6.046;2023-04-26T11:46:26;101914.94;;;10.74;48.82
43820;BME280;67762;52.476;6.046;2023-04-26T11:48:52;101912.28;;;10.84;48.79
43820;BME280;67762;52.476;6.046;2023-04-26T11:51:19;101915.94;;;11.21;49.28
43820;BME280;67762;52.476;6.046;2023-04-26T11:53:46;101913.25;;;11.40;48.60
43820;BME280;67762;52.476;6.046;2023-04-26T11:56:19;101915.06;;;11.40;48.05
43820;BME280;67762;52.476;6.046;2023-04-26T11:58:46;101912.72;;;11.27;48.26
43820;BME280;67762;52.476;6.046;2023-04-26T12:01:19;101911.81;;;11.36;48.90
43820;BME280;67762;52.476;6.046;2023-04-26T12:03:49;101915.75;;;11.42;48.71
43820;BME280;67762;52.476;6.046;2023-04-26T12:06:15;101917.00;;;11.47;48.50
43820;BME280;67762;52.476;6.046;2023-04-26T12:08:40;101912.97;;;11.43;49.41
43820;BME280;67762;52.476;6.046;2023-04-26T12:11:06;101920.56;;;11.29;47.90
43820;BME280;67762;52.476;6.046;2023-04-26T12:13:32;101926.75;;;11.20;48.90
43820;BME280;67762;52.476;6.046;2023-04-26T12:15:58;101927.31;;;11.04;47.88
43820;BME280;67762;52.476;6.046;2023-04-26T12:18:31;101918.19;;;11.06;47.65
43820;BME280;67762;52.476;6.046;2023-04-26T12:20:58;101918.59;;;11.31;48.17
43820;BME280;67762;52.476;6.046;2023-04-26T12:23:24;101923.91;;;11.50;47.51
43820;BME280;67762;52.476;6.046;2023-04-26T12:25:55;101916.88;;;11.39;47.26
43820;BME280;67762;52.476;6.046;2023-04-26T12:28:22;101924.34;;;11.45;47.06
43820;BME280;67762;52.476;6.046;2023-04-26T12:30:48;101922.06;;;11.50;46.07
43820;BME280;67762;52.476;6.046;2023-04-26T12:33:14;101926.59;;;11.40;45.91
43820;BME280;67762;52.476;6.046;2023-04-26T12:35:41;101916.88;;;11.39;46.44
43820;BME280;67762;52.476;6.046;2023-04-26T12:38:07;101927.13;;;11.53;46.01
43820;BME280;67762;52.476;6.046;2023-04-26T12:40:33;101916.13;;;11.85;44.68
43820;BME280;67762;52.476;6.046;2023-04-26T12:42:58;101918.72;;;12.31;44.76
43820;BME280;67762;52.476;6.046;2023-04-26T12:45:24;101913.47;;;12.84;44.87
43820;BME280;67762;52.476;6.046;2023-04-26T12:47:52;101917.47;;;13.16;44.33
43820;BME280;67762;52.476;6.046;2023-04-26T12:50:18;101917.69;;;13.22;44.67
43820;BME280;67762;52.476;6.046;2023-04-26T12:52:44;101919.81;;;13.36;45.03
43820;BME280;67762;52.476;6.046;2023-04-26T12:55:12;101904.53;;;13.55;44.49
43820;BME280;67762;52.476;6.046;2023-04-26T12:57:39;101911.88;;;13.78;44.46
43820;BME280;67762;52.476;6.046;2023-04-26T13:00:10;101917.78;;;13.82;44.41
43820;BME280;67762;52.476;6.046;2023-04-26T13:02:36;101911.06;;;13.52;44.19
43820;BME280;67762;52.476;6.046;2023-04-26T13:05:02;101909.03;;;13.28;44.65
43820;BME280;67762;52.476;6.046;2023-04-26T13:07:33;101909.03;;;12.93;43.84
43820;BME280;67762;52.476;6.046;2023-04-26T13:10:00;101910.56;;;12.96;44.74
43820;BME280;67762;52.476;6.046;2023-04-26T13:12:26;101908.34;;;12.91;44.12
43820;BME280;67762;52.476;6.046;2023-04-26T13:14:52;101916.22;;;12.93;44.12
43820;BME280;67762;52.476;6.046;2023-04-26T13:17:19;101909.94;;;12.84;44.10
43820;BME280;67762;52.476;6.046;2023-04-26T13:19:44;101916.41;;;12.46;44.62
43820;BME280;67762;52.476;6.046;2023-04-26T13:22:10;101915.41;;;12.20;45.13
43820;BME280;67762;52.476;6.046;2023-04-26T13:24:36;101913.88;;;11.81;45.18
43820;BME280;67762;52.476;6.046;2023-04-26T13:27:02;101926.16;;;11.73;46.06
43820;BME280;67762;52.476;6.046;2023-04-26T13:29:29;101927.53;;;11.58;46.65
43820;BME280;67762;52.476;6.046;2023-04-26T13:31:57;101931.09;;;11.40;46.35